Time,TemperatureF,DewpointF,PressureIn,WindDirection,WindDirectionDegrees,WindSpeedMPH,WindSpeedGustMPH,Humidity,HourlyPrecipIn,Conditions,Clouds,dailyrainin,SoftwareType,DateUTC
2013-02-14 00:05:00,34.3,31.0,29.63,NNE,24,2.0,7.0,89,0.01,,,0.00,weatherlink.com 1.10,2013-02-14 05:05:00,
2013-02-14 00:20:00,34.4,32.0,29.63,North,350,4.0,5.0,89,0.01,,,0.00,weatherlink.com 1.10,2013-02-14 05:20:00,
2013-02-14 00:35:00,34.6,31.0,29.64,NW,323,4.0,6.0,88,0.00,,,0.00,weatherlink.com 1.10,2013-02-14 05:35:00,
2013-02-14 00:50:00,34.6,31.0,29.64,NW,326,4.0,7.0,88,0.00,,,0.00,weatherlink.com 1.10,2013-02-14 05:50:00,
2013-02-14 01:05:00,34.3,31.0,29.64,NNE,16,2.0,6.0,89,0.00,,,0.00,weatherlink.com 1.10,2013-02-14 06:05:00,
2013-02-14 01:20:00,34.2,31.0,29.64,NNW,343,4.0,5.0,88,0.01,,,0.01,weatherlink.com 1.10,2013-02-14 06:20:00,
2013-02-14 01:35:00,34.2,31.0,29.65,NW,326,0.0,6.0,88,0.01,,,0.01,weatherlink.com 1.10,2013-02-14 06:35:00,
2013-02-14 01:50:00,34.3,31.0,29.65,NNW,332,2.0,6.0,87,0.01,,,0.01,weatherlink.com 1.10,2013-02-14 06:50:00,
2013-02-14 02:05:00,34.5,31.0,29.66,NNW,342,1.0,6.0,87,0.01,,,0.01,weatherlink.com 1.10,2013-02-14 07:05:00,
2013-02-14 02:20:00,34.8,31.0,29.66,North,356,0.0,3.0,87,0.00,,,0.01,weatherlink.com 1.10,2013-02-14 07:20:00,
2013-02-14 02:35:00,34.9,31.0,29.68,North,8,0.0,3.0,86,0.00,,,0.01,weatherlink.com 1.10,2013-02-14 07:35:00,
2013-02-14 02:50:00,35.1,31.0,29.69,North,352,4.0,4.0,85,0.00,,,0.01,weatherlink.com 1.10,2013-02-14 07:50:00,
2013-02-14 03:05:00,35.1,31.0,29.69,NE,48,0.0,4.0,85,0.00,,,0.01,weatherlink.com 1.10,2013-02-14 08:05:00,
2013-02-14 03:20:00,35.1,31.0,29.69,North,349,2.0,4.0,86,0.00,,,0.01,weatherlink.com 1.10,2013-02-14 08:20:00,
2013-02-14 03:36:00,35.0,31.0,29.70,NW,316,2.0,2.0,86,0.00,,,0.01,weatherlink.com 1.10,2013-02-14 08:36:00,
2013-02-14 03:50:00,35.0,31.0,29.71,North,8,3.0,7.0,85,0.00,,,0.01,weatherlink.com 1.10,2013-02-14 08:50:00,
2013-02-14 04:06:00,35.1,31.0,29.71,NE,34,0.0,4.0,84,0.00,,,0.01,weatherlink.com 1.10,2013-02-14 09:06:00,
2013-02-14 04:21:00,35.2,31.0,29.71,NW,316,0.0,3.0,84,0.00,,,0.01,weatherlink.com 1.10,2013-02-14 09:21:00,
2013-02-14 04:36:00,34.9,31.0,29.71,NNE,27,0.0,2.0,84,0.00,,,0.01,weatherlink.com 1.10,2013-02-14 09:36:00,
2013-02-14 04:52:00,34.8,30.0,29.72,North,355,0.0,5.0,84,0.00,,,0.01,weatherlink.com 1.10,2013-02-14 09:52:00,
2013-02-14 05:06:00,34.9,31.0,29.73,NNW,345,0.0,2.0,85,0.00,,,0.01,weatherlink.com 1.10,2013-02-14 10:06:00,
2013-02-14 05:21:00,34.8,30.0,29.74,East,98,0.0,3.0,84,0.00,,,0.01,weatherlink.com 1.10,2013-02-14 10:21:00,
2013-02-14 05:36:00,34.6,30.0,29.74,NNW,338,0.0,2.0,84,0.00,,,0.01,weatherlink.com 1.10,2013-02-14 10:36:00,
2013-02-14 05:51:00,34.5,30.0,29.74,WSW,252,0.0,2.0,84,0.00,,,0.01,weatherlink.com 1.10,2013-02-14 10:51:00,
2013-02-14 06:06:00,34.6,30.0,29.75,ENE,65,0.0,4.0,83,0.00,,,0.01,weatherlink.com 1.10,2013-02-14 11:06:00,
2013-02-14 06:21:00,34.5,30.0,29.76,NW,321,0.0,6.0,82,0.00,,,0.01,weatherlink.com 1.10,2013-02-14 11:21:00,
2013-02-14 06:36:00,34.3,29.0,29.77,ENE,68,0.0,0.0,82,0.00,,,0.01,weatherlink.com 1.10,2013-02-14 11:36:00,
2013-02-14 06:51:00,34.1,29.0,29.78,SE,142,0.0,1.0,81,0.00,,,0.01,weatherlink.com 1.10,2013-02-14 11:51:00,
2013-02-14 07:06:00,34.1,29.0,29.79,North,1,0.0,0.0,80,0.00,,,0.01,weatherlink.com 1.10,2013-02-14 12:06:00,
2013-02-14 07:21:00,34.3,28.0,29.81,NE,50,0.0,1.0,78,0.00,,,0.01,weatherlink.com 1.10,2013-02-14 12:21:00,
2013-02-14 07:36:00,34.7,28.0,29.82,ENE,74,0.0,1.0,75,0.00,,,0.01,weatherlink.com 1.10,2013-02-14 12:36:00,
2013-02-14 07:51:00,35.2,27.0,29.83,North,6,0.0,4.0,72,0.00,,,0.01,weatherlink.com 1.10,2013-02-14 12:51:00,
2013-02-14 08:06:00,35.7,26.0,29.83,ENE,63,0.0,1.0,69,0.00,,,0.01,weatherlink.com 1.10,2013-02-14 13:06:00,
2013-02-14 08:21:00,36.0,26.0,29.84,North,5,2.0,3.0,66,0.00,,,0.01,weatherlink.com 1.10,2013-02-14 13:21:00,
2013-02-14 08:36:00,36.2,26.0,29.84,NNE,24,0.0,6.0,66,0.00,,,0.01,weatherlink.com 1.10,2013-02-14 13:36:00,
2013-02-14 08:51:00,37.2,26.0,29.84,North,10,0.0,3.0,64,0.00,,,0.01,weatherlink.com 1.10,2013-02-14 13:51:00,
2013-02-14 09:06:00,37.9,26.0,29.85,SSE,150,0.0,5.0,63,0.00,,,0.01,weatherlink.com 1.10,2013-02-14 14:06:00,
2013-02-14 09:21:00,38.9,26.0,29.85,WSW,256,0.0,6.0,60,0.00,,,0.01,weatherlink.com 1.10,2013-02-14 14:21:00,
2013-02-14 09:36:00,39.0,25.0,29.85,NNE,13,0.0,6.0,58,0.00,,,0.01,weatherlink.com 1.10,2013-02-14 14:36:00,
2013-02-14 09:51:00,39.0,25.0,29.86,NW,304,1.0,6.0,58,0.00,,,0.01,weatherlink.com 1.10,2013-02-14 14:51:00,
2013-02-14 10:06:00,39.0,25.0,29.87,WNW,298,3.0,5.0,57,0.00,,,0.01,weatherlink.com 1.10,2013-02-14 15:06:00,
2013-02-14 10:21:00,39.5,24.0,29.87,NE,53,3.0,7.0,55,0.00,,,0.01,weatherlink.com 1.10,2013-02-14 15:21:00,
2013-02-14 10:37:00,40.2,24.0,29.87,NNW,329,0.0,5.0,53,0.00,,,0.01,weatherlink.com 1.10,2013-02-14 15:37:00,
2013-02-14 10:52:00,40.2,23.0,29.87,NNE,19,1.0,8.0,51,0.00,,,0.01,weatherlink.com 1.10,2013-02-14 15:52:00,
2013-02-14 11:07:00,40.9,23.0,29.88,NNE,26,0.0,7.0,50,0.00,,,0.01,weatherlink.com 1.10,2013-02-14 16:07:00,
2013-02-14 11:22:00,41.3,24.0,29.87,NNW,332,2.0,5.0,50,0.00,,,0.01,weatherlink.com 1.10,2013-02-14 16:22:00,
2013-02-14 11:37:00,42.1,24.0,29.87,WNW,293,0.0,4.0,48,0.00,,,0.01,weatherlink.com 1.10,2013-02-14 16:37:00,
2013-02-14 11:52:00,42.4,24.0,29.86,NNE,23,0.0,4.0,49,0.00,,,0.01,weatherlink.com 1.10,2013-02-14 16:52:00,
2013-02-14 12:07:00,43.9,25.0,29.86,WNW,287,0.0,2.0,48,0.00,,,0.01,weatherlink.com 1.10,2013-02-14 17:07:00,
2013-02-14 12:22:00,45.3,25.0,29.86,NNW,329,0.0,2.0,46,0.00,,,0.01,weatherlink.com 1.10,2013-02-14 17:22:00,
2013-02-14 12:37:00,45.7,25.0,29.86,SSE,153,0.0,2.0,45,0.00,,,0.01,weatherlink.com 1.10,2013-02-14 17:37:00,
2013-02-14 12:52:00,46.1,26.0,29.85,West,276,0.0,4.0,45,0.00,,,0.01,weatherlink.com 1.10,2013-02-14 17:52:00,
2013-02-14 13:07:00,46.3,25.0,29.85,SW,217,0.0,2.0,44,0.00,,,0.01,weatherlink.com 1.10,2013-02-14 18:07:00,
2013-02-14 13:22:00,45.8,24.0,29.85,SE,125,0.0,6.0,42,0.00,,,0.01,weatherlink.com 1.10,2013-02-14 18:22:00,
2013-02-14 13:37:00,46.2,24.0,29.85,SSW,194,0.0,4.0,41,0.00,,,0.01,weatherlink.com 1.10,2013-02-14 18:37:00,
2013-02-14 13:52:00,46.4,24.0,29.85,SSE,155,2.0,5.0,41,0.00,,,0.01,weatherlink.com 1.10,2013-02-14 18:52:00,
2013-02-14 14:07:00,47.8,24.0,29.85,SE,127,0.0,5.0,39,0.00,,,0.01,weatherlink.com 1.10,2013-02-14 19:07:00,
2013-02-14 14:22:00,47.1,23.0,29.85,SE,125,0.0,5.0,39,0.00,,,0.01,weatherlink.com 1.10,2013-02-14 19:22:00,
2013-02-14 14:37:00,46.5,23.0,29.85,ESE,115,6.0,10.0,40,0.00,,,0.01,weatherlink.com 1.10,2013-02-14 19:37:00,
2013-02-14 14:52:00,46.6,23.0,29.85,SSE,155,2.0,7.0,40,0.00,,,0.01,weatherlink.com 1.10,2013-02-14 19:52:00,
2013-02-14 15:07:00,47.1,24.0,29.86,SE,129,1.0,7.0,40,0.00,,,0.01,weatherlink.com 1.10,2013-02-14 20:07:00,
2013-02-14 15:22:00,47.0,24.0,29.86,SE,133,0.0,9.0,41,0.00,,,0.01,weatherlink.com 1.10,2013-02-14 20:22:00,
2013-02-14 15:37:00,46.9,26.0,29.86,SSE,152,1.0,6.0,44,0.00,,,0.01,weatherlink.com 1.10,2013-02-14 20:37:00,
2013-02-14 15:52:00,46.7,26.0,29.86,SSE,162,1.0,5.0,44,0.00,,,0.01,weatherlink.com 1.10,2013-02-14 20:52:00,
2013-02-14 16:07:00,46.1,26.0,29.86,SSE,148,0.0,5.0,46,0.00,,,0.01,weatherlink.com 1.10,2013-02-14 21:07:00,
2013-02-14 16:22:00,45.0,28.0,29.87,SE,140,3.0,7.0,52,0.00,,,0.01,weatherlink.com 1.10,2013-02-14 21:22:00,
2013-02-14 16:37:00,44.1,28.0,29.87,WSW,248,1.0,9.0,53,0.00,,,0.01,weatherlink.com 1.10,2013-02-14 21:37:00,
2013-02-14 16:52:00,43.5,27.0,29.88,SSE,160,1.0,6.0,53,0.00,,,0.01,weatherlink.com 1.10,2013-02-14 21:52:00,
2013-02-14 17:07:00,42.7,28.0,29.89,ESE,111,0.0,5.0,56,0.00,,,0.01,weatherlink.com 1.10,2013-02-14 22:07:00,
2013-02-14 17:22:00,41.8,31.0,29.89,West,264,0.0,6.0,65,0.00,,,0.01,weatherlink.com 1.10,2013-02-14 22:22:00,
2013-02-14 17:37:00,41.3,31.0,29.89,SE,135,1.0,6.0,66,0.00,,,0.01,weatherlink.com 1.10,2013-02-14 22:37:00,
2013-02-14 17:52:00,41.2,31.0,29.89,SSE,158,0.0,4.0,68,0.00,,,0.01,weatherlink.com 1.10,2013-02-14 22:52:00,
2013-02-14 18:07:00,40.9,31.0,29.89,SE,135,3.0,5.0,68,0.00,,,0.01,weatherlink.com 1.10,2013-02-14 23:07:00,
2013-02-14 18:22:00,40.8,31.0,29.89,SSE,148,0.0,4.0,68,0.00,,,0.01,weatherlink.com 1.10,2013-02-14 23:22:00,
2013-02-14 18:37:00,40.5,31.0,29.90,SSE,158,1.0,5.0,69,0.00,,,0.01,weatherlink.com 1.10,2013-02-14 23:37:00,
2013-02-14 18:52:00,40.3,32.0,29.91,ESE,122,1.0,7.0,71,0.00,,,0.01,weatherlink.com 1.10,2013-02-14 23:52:00,
2013-02-14 19:07:00,40.2,32.0,29.90,SE,129,0.0,3.0,73,0.00,,,0.01,weatherlink.com 1.10,2013-02-15 00:07:00,
2013-02-14 19:22:00,40.1,33.0,29.90,SE,130,0.0,3.0,76,0.00,,,0.01,weatherlink.com 1.10,2013-02-15 00:22:00,
2013-02-14 19:37:00,40.1,34.0,29.90,ESE,117,2.0,6.0,79,0.00,,,0.01,weatherlink.com 1.10,2013-02-15 00:37:00,
2013-02-14 19:52:00,40.0,34.0,29.90,SE,134,1.0,2.0,80,0.00,,,0.01,weatherlink.com 1.10,2013-02-15 00:52:00,
2013-02-14 20:07:00,39.7,34.0,29.90,SE,139,3.0,3.0,81,0.00,,,0.01,weatherlink.com 1.10,2013-02-15 01:07:00,
2013-02-14 20:22:00,39.7,34.0,29.91,SSE,160,1.0,4.0,80,0.00,,,0.01,weatherlink.com 1.10,2013-02-15 01:22:00,
2013-02-14 20:37:00,39.8,33.0,29.91,SSE,159,2.0,3.0,78,0.00,,,0.01,weatherlink.com 1.10,2013-02-15 01:37:00,
2013-02-14 20:52:00,40.4,33.0,29.91,SE,141,2.0,4.0,75,0.00,,,0.01,weatherlink.com 1.10,2013-02-15 01:52:00,
2013-02-14 21:07:00,40.6,34.0,29.91,ESE,119,2.0,3.0,76,0.00,,,0.01,weatherlink.com 1.10,2013-02-15 02:07:00,
2013-02-14 21:22:00,40.5,34.0,29.91,South,181,0.0,3.0,76,0.00,,,0.01,weatherlink.com 1.10,2013-02-15 02:22:00,
2013-02-14 21:37:00,40.3,34.0,29.91,SSE,149,2.0,3.0,77,0.00,,,0.01,weatherlink.com 1.10,2013-02-15 02:37:00,
2013-02-14 21:52:00,40.3,34.0,29.91,SSW,201,1.0,5.0,77,0.00,,,0.01,weatherlink.com 1.10,2013-02-15 02:52:00,
2013-02-14 22:07:00,40.2,34.0,29.92,South,172,1.0,3.0,77,0.00,,,0.01,weatherlink.com 1.10,2013-02-15 03:07:00,
2013-02-14 22:22:00,39.9,33.0,29.92,South,169,1.0,4.0,77,0.00,,,0.01,weatherlink.com 1.10,2013-02-15 03:22:00,
2013-02-14 22:37:00,39.9,33.0,29.91,SSE,162,1.0,3.0,76,0.00,,,0.01,weatherlink.com 1.10,2013-02-15 03:37:00,
2013-02-14 22:52:00,39.8,32.0,29.92,SE,146,2.0,4.0,75,0.00,,,0.01,weatherlink.com 1.10,2013-02-15 03:52:00,
2013-02-14 23:07:00,39.7,32.0,29.91,SSE,156,0.0,5.0,75,0.00,,,0.01,weatherlink.com 1.10,2013-02-15 04:07:00,
2013-02-14 23:22:00,40.2,31.0,29.91,South,169,2.0,5.0,70,0.00,,,0.01,weatherlink.com 1.10,2013-02-15 04:22:00,
2013-02-14 23:37:00,40.2,31.0,29.91,SE,144,0.0,4.0,69,0.00,,,0.01,weatherlink.com 1.10,2013-02-15 04:37:00,
2013-02-14 23:52:00,40.2,31.0,29.92,SW,218,2.0,5.0,69,0.00,,,0.01,weatherlink.com 1.10,2013-02-15 04:52:00,